Fairlawn, Virginia
Current Conditions -  °F | °C
As of 8:15 AM on Wednesday 22 Oct 2014 (Local Time) from KPSK Reporting Station
Overcast Overcast  
Wind Chill:   Ceiling: 1900
Heat Index:   Visibility: 10mi
Dew Point:   Wind: 5mph
Humidity: 81%   Direction: 340°NNW
Pressure: 30.09"   Gusts: NA
Location:  37.1746°N, 80.6425°W
Report Text: KPSK 221215Z AUTO 34004KT 10SM OVC019 08/05 A3009 RMK AO2 T00750045
Loading
Personal Weather Stations






























Interactive Weather Map
Tropical Storm Tracking
New forecast layout! Learn more

10-Day Weather Forecast

Advertisements
Track Severe Weather on mobile